createdAt,value
2018-10-17T00:02:32.600Z,100065.61
2018-10-17T00:05:37.165Z,100067.01
2018-10-17T00:08:42.022Z,100067.61
2018-10-17T00:11:46.632Z,100062.03
2018-10-17T00:14:51.191Z,100064.48
2018-10-17T00:17:55.844Z,100070.20
2018-10-17T00:21:00.398Z,100062.97
2018-10-17T00:24:05.378Z,100061.73
2018-10-17T00:27:10.010Z,100068.20
2018-10-17T00:30:14.625Z,100065.05
2018-10-17T00:33:19.378Z,100060.20
2018-10-17T00:36:23.992Z,100061.82
2018-10-17T00:39:28.723Z,100069.27
2018-10-17T00:42:33.350Z,100062.49
2018-10-17T00:45:38.042Z,100065.03
2018-10-17T00:48:42.810Z,100065.18
2018-10-17T00:51:47.502Z,100062.98
2018-10-17T00:54:52.280Z,100066.67
2018-10-17T00:57:56.977Z,100055.09
2018-10-17T01:01:01.713Z,100056.41
2018-10-17T01:04:06.741Z,100053.58
2018-10-17T01:07:11.433Z,100047.95
2018-10-17T01:10:16.066Z,100046.00
2018-10-17T01:13:20.834Z,100044.31
2018-10-17T01:16:25.471Z,100044.66
2018-10-17T01:19:30.352Z,100045.98
2018-10-17T01:22:34.984Z,100048.55
2018-10-17T01:25:39.579Z,100038.35
2018-10-17T01:28:44.396Z,100041.95
2018-10-17T01:31:49.003Z,100044.00
2018-10-17T01:34:56.806Z,100038.75
2018-10-17T01:38:01.588Z,100044.95
2018-10-17T01:41:06.518Z,100040.22
2018-10-17T01:44:11.062Z,100046.12
2018-10-17T01:47:15.782Z,100041.27
2018-10-17T01:50:20.393Z,100040.13
2018-10-17T01:53:25.003Z,100041.73
2018-10-17T01:56:29.640Z,100040.77
2018-10-17T01:59:34.379Z,100039.17
2018-10-17T02:02:38.981Z,100037.45
2018-10-17T02:05:43.810Z,100039.82
2018-10-17T02:08:48.427Z,100036.45
2018-10-17T02:11:53.016Z,100038.61
2018-10-17T02:14:57.602Z,100036.87
2018-10-17T02:18:02.166Z,100036.73
2018-10-17T02:21:07.276Z,100036.48
2018-10-17T02:24:12.823Z,100038.95
2018-10-17T02:27:17.493Z,100033.50
2018-10-17T02:30:22.196Z,100033.89
2018-10-17T02:33:26.884Z,100036.87
2018-10-17T02:36:31.544Z,100042.97
2018-10-17T02:39:36.226Z,100039.64
2018-10-17T02:42:41.244Z,100037.65
2018-10-17T02:45:45.896Z,100041.02
2018-10-17T02:48:50.542Z,100040.05
2018-10-17T02:51:55.642Z,100039.42
2018-10-17T02:55:00.247Z,100038.03
2018-10-17T02:58:05.193Z,100039.48
2018-10-17T03:01:09.819Z,100039.17
2018-10-17T03:04:14.585Z,100040.03
2018-10-17T03:07:19.507Z,100037.43
2018-10-17T03:10:24.060Z,100043.73
2018-10-17T03:13:28.688Z,100048.58
2018-10-17T03:16:33.335Z,100051.91
2018-10-17T03:19:38.182Z,100059.41
2018-10-17T03:22:42.955Z,100055.45
2018-10-17T03:25:47.704Z,100063.60
2018-10-17T03:28:52.565Z,100062.47
2018-10-17T03:31:57.253Z,100064.84
2018-10-17T03:35:01.956Z,100061.72
2018-10-17T03:38:07.014Z,100064.98
2018-10-17T03:41:11.842Z,100062.88
2018-10-17T03:44:16.605Z,100069.83
2018-10-17T03:47:21.299Z,100068.90
2018-10-17T03:50:25.944Z,100064.09
2018-10-17T03:53:30.806Z,100066.70
2018-10-17T03:56:35.655Z,100078.97
2018-10-17T03:59:40.488Z,100075.48
2018-10-17T04:02:44.799Z,100076.23
2018-10-17T04:05:49.428Z,100077.82
2018-10-17T04:08:54.200Z,100083.44
2018-10-17T04:11:59.021Z,100083.84
2018-10-17T04:15:03.720Z,100086.91
2018-10-17T04:18:08.297Z,100088.88
2018-10-17T04:21:13.035Z,100087.77
2018-10-17T04:24:17.845Z,100085.17
2018-10-17T04:27:22.418Z,100094.19
2018-10-17T04:30:27.100Z,100085.28
2018-10-17T04:33:31.649Z,100085.13
2018-10-17T04:36:36.303Z,100087.98
2018-10-17T04:39:41.095Z,100087.67
2018-10-17T04:42:45.743Z,100087.12
2018-10-17T04:45:50.577Z,100090.69
2018-10-17T04:48:55.480Z,100090.59
2018-10-17T04:52:00.301Z,100085.32
2018-10-17T04:55:05.910Z,100087.04
2018-10-17T04:58:10.514Z,100077.83
2018-10-17T05:01:15.385Z,100080.48
2018-10-17T05:04:19.957Z,100079.55
2018-10-17T05:07:24.699Z,100080.74
2018-10-17T05:10:29.528Z,100084.94
2018-10-17T05:13:34.279Z,100084.70
2018-10-17T05:16:39.041Z,100088.98
2018-10-17T05:19:43.751Z,100092.03
2018-10-17T05:22:48.428Z,100091.42
2018-10-17T05:25:53.015Z,100087.77
2018-10-17T05:28:57.685Z,100094.33
2018-10-17T05:32:02.208Z,100090.65
2018-10-17T05:35:07.835Z,100087.55
2018-10-17T05:38:12.509Z,100085.61
2018-10-17T05:41:17.141Z,100083.08
2018-10-17T05:44:21.813Z,100080.55
2018-10-17T05:47:26.305Z,100083.98
2018-10-17T05:50:30.956Z,100091.14
2018-10-17T05:53:35.626Z,100093.69
2018-10-17T05:56:40.440Z,100088.44
2018-10-17T05:59:45.376Z,100084.69
2018-10-17T06:02:49.988Z,100084.45
2018-10-17T06:05:54.545Z,100079.95
2018-10-17T06:08:59.561Z,100082.58
2018-10-17T06:12:04.312Z,100081.68
2018-10-17T06:15:08.954Z,100083.24
2018-10-17T06:18:13.512Z,100084.45
2018-10-17T06:21:18.347Z,100080.59
2018-10-17T06:24:22.947Z,100087.83
2018-10-17T06:27:27.672Z,100086.28
2018-10-17T06:30:32.329Z,100091.87
2018-10-17T06:33:37.002Z,100084.44
2018-10-17T06:36:41.580Z,100084.69
2018-10-17T06:39:46.245Z,100079.14
2018-10-17T06:42:50.851Z,100076.97
2018-10-17T06:45:55.473Z,100083.48
2018-10-17T06:49:00.140Z,100089.05
2018-10-17T06:52:04.781Z,100089.19
2018-10-17T06:55:09.401Z,100088.78
2018-10-17T06:58:13.968Z,100085.50
2018-10-17T07:01:18.605Z,100088.39
2018-10-17T07:04:23.127Z,100088.13
2018-10-17T07:07:27.798Z,100094.08
2018-10-17T07:10:32.360Z,100093.63
2018-10-17T07:13:36.980Z,100096.94
2018-10-17T07:16:41.657Z,100106.41
2018-10-17T07:19:46.240Z,100105.84
2018-10-17T07:22:51.026Z,100109.30
2018-10-17T07:25:55.648Z,100104.86
2018-10-17T07:29:00.310Z,100101.94
2018-10-17T07:32:04.972Z,100106.41
2018-10-17T07:35:10.975Z,100106.14
2018-10-17T07:38:15.691Z,100107.98
2018-10-17T07:41:20.319Z,100103.30
2018-10-17T07:44:25.108Z,100109.16
2018-10-17T07:47:29.751Z,100110.33
2018-10-17T07:50:34.398Z,100108.67
2018-10-17T07:53:39.138Z,100107.20
2018-10-17T07:56:43.787Z,100107.80
2018-10-17T07:59:48.434Z,100111.40
2018-10-17T08:02:53.041Z,100108.95
2018-10-17T08:05:57.695Z,100112.66
2018-10-17T08:09:02.436Z,100110.81
2018-10-17T08:12:07.204Z,100116.31
2018-10-17T08:15:12.032Z,100117.22
2018-10-17T08:18:16.786Z,100116.59
2018-10-17T08:21:21.386Z,100107.23
2018-10-17T08:24:25.948Z,100111.67
2018-10-17T08:27:30.861Z,100106.86
2018-10-17T08:30:35.359Z,100106.59
2018-10-17T08:33:39.984Z,100102.84
2018-10-17T08:36:45.098Z,100107.08
2018-10-17T08:39:49.614Z,100105.15
2018-10-17T08:42:54.503Z,100112.28
2018-10-17T08:45:59.260Z,100109.39
2018-10-17T08:49:04.057Z,100105.73
2018-10-17T08:52:09.679Z,100099.27
2018-10-17T08:55:14.301Z,100097.33
2018-10-17T08:58:19.024Z,100094.09
2018-10-17T09:01:23.576Z,100098.02
2018-10-17T09:04:28.178Z,100096.14
2018-10-17T09:07:32.839Z,100103.60
2018-10-17T09:10:37.423Z,100100.98
2018-10-17T09:13:42.124Z,100099.91
2018-10-17T09:16:47.012Z,100105.20
2018-10-17T09:19:51.834Z,100096.00
2018-10-17T09:22:56.241Z,100094.95
2018-10-17T09:26:00.965Z,100089.79
2018-10-17T09:29:05.682Z,100097.43
2018-10-17T09:32:10.296Z,100095.81
2018-10-17T09:35:15.074Z,100093.91
2018-10-17T09:38:19.843Z,100094.73
2018-10-17T09:41:24.560Z,100094.26
2018-10-17T09:44:29.661Z,100093.73
2018-10-17T09:47:34.495Z,100095.05
2018-10-17T09:50:39.282Z,100089.98
2018-10-17T09:53:44.010Z,100086.72
2018-10-17T09:56:48.778Z,100089.34
2018-10-17T09:59:53.697Z,100085.46
2018-10-17T10:02:58.348Z,100082.73
2018-10-17T10:06:03.150Z,100066.48
2018-10-17T10:09:10.490Z,100070.27
2018-10-17T10:12:15.377Z,100066.59
2018-10-17T10:15:19.936Z,100058.21
2018-10-17T10:18:24.637Z,100054.92
2018-10-17T10:21:29.506Z,100050.31
2018-10-17T10:24:34.175Z,100042.77
2018-10-17T10:27:40.553Z,100048.05
2018-10-17T10:30:45.209Z,100046.83
2018-10-17T10:33:49.883Z,100044.12
2018-10-17T10:36:54.562Z,100032.59
2018-10-17T10:39:59.188Z,100038.64
2018-10-17T10:43:03.974Z,100027.70
2018-10-17T10:46:09.009Z,100020.56
2018-10-17T10:49:13.805Z,100017.14
2018-10-17T10:52:18.336Z,100018.03
2018-10-17T10:55:23.126Z,100004.63
2018-10-17T10:58:28.115Z,100008.48
2018-10-17T11:01:32.645Z,100009.64
2018-10-17T11:04:43.699Z,99999.22
2018-10-17T11:07:48.209Z,99994.59
2018-10-17T11:10:53.009Z,99986.36
2018-10-17T11:13:57.743Z,99990.22
2018-10-17T11:17:02.506Z,99986.89
2018-10-17T11:20:08.535Z,99982.48
2018-10-17T11:23:14.020Z,99975.62
2018-10-17T11:26:18.608Z,99971.78
2018-10-17T11:29:23.484Z,99972.59
2018-10-17T11:32:28.070Z,99972.66
2018-10-17T11:35:32.678Z,99970.97
2018-10-17T11:38:37.374Z,99963.03
2018-10-17T11:41:42.311Z,99963.39
2018-10-17T11:44:47.096Z,99959.95
2018-10-17T11:47:51.854Z,99947.61
2018-10-17T11:50:56.347Z,99947.78
2018-10-17T11:54:02.117Z,99936.85
2018-10-17T11:57:06.928Z,99942.07
2018-10-17T12:00:13.334Z,99935.44
2018-10-17T12:03:18.214Z,99931.75
2018-10-17T12:06:22.820Z,99924.50
2018-10-17T12:09:27.484Z,99923.84
2018-10-17T12:12:32.234Z,99922.01
2018-10-17T12:15:40.960Z,99910.82
2018-10-17T12:18:45.591Z,99915.88
2018-10-17T12:21:50.643Z,99909.19
2018-10-17T12:24:55.453Z,99904.83
2018-10-17T12:28:00.395Z,99901.58
2018-10-17T12:31:05.274Z,99902.30
2018-10-17T12:34:09.979Z,99897.09
2018-10-17T12:37:14.625Z,99898.36
2018-10-17T12:40:19.570Z,99886.86
2018-10-17T12:43:24.140Z,99885.73
2018-10-17T12:46:29.067Z,99890.16
2018-10-17T12:49:34.111Z,99887.58
2018-10-17T12:52:38.935Z,99888.09
2018-10-17T12:55:44.033Z,99889.41
2018-10-17T12:58:49.171Z,99889.50
2018-10-17T13:01:54.227Z,99887.37
2018-10-17T13:04:58.992Z,99890.17
2018-10-17T13:08:03.794Z,99886.70
2018-10-17T13:11:08.526Z,99880.47
2018-10-17T13:14:13.366Z,99883.94
2018-10-17T13:17:18.330Z,99875.39
2018-10-17T13:20:23.072Z,99878.45
2018-10-17T13:23:28.065Z,99872.42
2018-10-17T13:26:32.705Z,99873.73
2018-10-17T13:29:37.618Z,99867.88
2018-10-17T13:32:42.345Z,99862.53
2018-10-17T13:35:47.057Z,99858.48
2018-10-17T13:38:51.706Z,99854.97
2018-10-17T13:41:56.654Z,99860.92
2018-10-17T13:45:01.773Z,99848.80
2018-10-17T13:48:06.723Z,99852.57
2018-10-17T13:51:11.813Z,99851.41
2018-10-17T13:54:16.503Z,99848.91
2018-10-17T13:57:21.341Z,99854.44
2018-10-17T14:00:26.122Z,99855.94
2018-10-17T14:03:30.763Z,99856.22
2018-10-17T14:06:35.517Z,99855.53
2018-10-17T14:09:40.165Z,99859.57
2018-10-17T14:12:44.838Z,99854.63
2018-10-17T14:15:49.567Z,99855.70
2018-10-17T14:18:54.258Z,99857.27
2018-10-17T14:21:59.029Z,99849.17
2018-10-17T14:25:03.744Z,99854.91
2018-10-17T14:28:08.681Z,99850.90
2018-10-17T14:31:13.266Z,99847.16
2018-10-17T14:34:17.980Z,99845.03
2018-10-17T14:37:22.679Z,99841.53
2018-10-17T14:40:27.423Z,99847.11
2018-10-17T14:43:32.288Z,99844.14
2018-10-17T14:46:37.038Z,99841.17
2018-10-17T14:49:41.880Z,99838.20
2018-10-17T14:52:46.562Z,99843.20
2018-10-17T14:55:51.327Z,99843.48
2018-10-17T14:58:55.935Z,99850.89
2018-10-17T15:02:00.731Z,99847.87
2018-10-17T15:05:05.521Z,99843.23
2018-10-17T15:08:10.158Z,99845.42
2018-10-17T15:11:15.007Z,99845.98
2018-10-17T15:14:19.627Z,99844.05
2018-10-17T15:17:24.560Z,99852.80
2018-10-17T15:20:29.331Z,99845.42
2018-10-17T15:23:34.089Z,99844.31
2018-10-17T15:26:38.723Z,99846.23
2018-10-17T15:29:43.315Z,99846.45
2018-10-17T15:32:48.266Z,99847.27
2018-10-17T15:35:52.963Z,99850.23
2018-10-17T15:38:57.606Z,99853.44
2018-10-17T15:42:02.473Z,99860.48
2018-10-17T15:45:07.714Z,99858.80
2018-10-17T15:48:12.413Z,99853.59
2018-10-17T15:51:16.974Z,99858.41
2018-10-17T15:54:21.612Z,99858.83
2018-10-17T15:57:26.341Z,99854.50
2018-10-17T16:00:30.897Z,99855.83
2018-10-17T16:03:35.594Z,99858.08
2018-10-17T16:06:40.238Z,99859.89
2018-10-17T16:09:44.927Z,99860.08
2018-10-17T16:12:49.568Z,99868.39
2018-10-17T16:15:54.306Z,99867.09
2018-10-17T16:18:58.868Z,99868.33
2018-10-17T16:22:03.464Z,99871.82
2018-10-17T16:25:08.856Z,99873.95
2018-10-17T16:28:13.500Z,99873.72
2018-10-17T16:31:18.151Z,99878.33
2018-10-17T16:34:22.794Z,99887.47
2018-10-17T16:37:27.455Z,99886.52
2018-10-17T16:40:32.174Z,99886.66
2018-10-17T16:43:36.964Z,99890.56
2018-10-17T16:46:41.758Z,99893.85
2018-10-17T16:49:46.540Z,99897.25
2018-10-17T16:52:51.070Z,99895.60
2018-10-17T16:55:55.618Z,99900.95
2018-10-17T16:59:00.159Z,99901.92
2018-10-17T17:02:05.309Z,99911.59
2018-10-17T17:05:13.615Z,99916.35
2018-10-17T17:08:18.212Z,99919.66
2018-10-17T17:11:22.861Z,99917.23
2018-10-17T17:14:27.812Z,99920.62
2018-10-17T17:17:32.393Z,99928.34
2018-10-17T17:20:37.134Z,99923.75
2018-10-17T17:23:42.274Z,99925.30
2018-10-17T17:26:46.968Z,99928.05
2018-10-17T17:29:51.977Z,99925.69
2018-10-17T17:32:56.784Z,99936.25
2018-10-17T17:36:01.430Z,99934.52
2018-10-17T17:39:08.569Z,99941.81
2018-10-17T17:42:13.244Z,99939.26
2018-10-17T17:45:17.988Z,99936.73
2018-10-17T17:48:22.599Z,99938.64
2018-10-17T17:51:27.357Z,99939.91
2018-10-17T17:54:32.024Z,99945.68
2018-10-17T17:57:36.758Z,99943.15
2018-10-17T18:00:41.295Z,99942.48
2018-10-17T18:03:45.981Z,99947.54
2018-10-17T18:06:50.689Z,99950.28
2018-10-17T18:09:55.312Z,99952.66
2018-10-17T18:13:00.008Z,99962.77
2018-10-17T18:16:04.660Z,99959.61
2018-10-17T18:19:09.445Z,99961.70
2018-10-17T18:22:14.153Z,99969.31
2018-10-17T18:25:18.791Z,99971.18
2018-10-17T18:28:23.431Z,99971.48
2018-10-17T18:31:28.108Z,99969.08
2018-10-17T18:34:32.720Z,99971.56
2018-10-17T18:37:37.789Z,99979.02
2018-10-17T18:40:42.791Z,99975.40
2018-10-17T18:43:47.636Z,99971.84
2018-10-17T18:46:52.310Z,99978.19
2018-10-17T18:49:57.046Z,99980.89
2018-10-17T18:53:01.900Z,99978.48
2018-10-17T18:56:06.698Z,99975.02
2018-10-17T18:59:11.361Z,99978.92
2018-10-17T19:02:16.080Z,99979.53
2018-10-17T19:05:20.823Z,99990.34
2018-10-17T19:08:25.414Z,99991.89
2018-10-17T19:11:30.130Z,99988.73
2018-10-17T19:14:34.773Z,99992.38
2018-10-17T19:17:39.354Z,99998.19
2018-10-17T19:20:43.989Z,100003.59
2018-10-17T19:23:48.805Z,100003.28
2018-10-17T19:26:53.534Z,100003.39
2018-10-17T19:29:58.339Z,100011.76
2018-10-17T19:33:02.919Z,100007.97
2018-10-17T19:36:07.693Z,100018.84
2018-10-17T19:39:13.217Z,100020.34
2018-10-17T19:42:17.721Z,100016.03
2018-10-17T19:45:29.510Z,100021.05
2018-10-17T19:48:34.864Z,100016.77
2018-10-17T19:51:39.749Z,100026.22
2018-10-17T19:54:44.458Z,100020.34
2018-10-17T19:57:49.258Z,100022.64
2018-10-17T20:00:54.179Z,100025.39
2018-10-17T20:03:58.869Z,100021.88
2018-10-17T20:07:03.614Z,100025.59
2018-10-17T20:10:08.712Z,100026.23
2018-10-17T20:13:13.564Z,100032.73
2018-10-17T20:16:18.253Z,100033.89
2018-10-17T20:19:22.921Z,100041.23
2018-10-17T20:22:27.538Z,100034.05
2018-10-17T20:25:39.415Z,100023.98
2018-10-17T20:28:44.037Z,100035.20
2018-10-17T20:31:48.698Z,100037.02
2018-10-17T20:34:53.368Z,100033.89
2018-10-17T20:37:57.925Z,100031.43
2018-10-17T20:41:02.703Z,100040.05
2018-10-17T20:44:07.506Z,100033.20
2018-10-17T20:47:12.097Z,100035.09
2018-10-17T20:50:16.863Z,100039.89
2018-10-17T20:53:21.431Z,100042.28
2018-10-17T20:56:26.044Z,100034.22
2018-10-17T20:59:30.623Z,100043.43
2018-10-17T21:02:35.339Z,100034.81
2018-10-17T21:05:39.987Z,100044.58
2018-10-17T21:08:44.649Z,100044.27
2018-10-17T21:11:49.384Z,100043.23
2018-10-17T21:14:53.959Z,100044.72
2018-10-17T21:17:58.631Z,100037.47
2018-10-17T21:21:03.319Z,100033.73
2018-10-17T21:24:07.894Z,100040.64
2018-10-17T21:27:12.586Z,100037.23
2018-10-17T21:30:17.365Z,100039.00
2018-10-17T21:33:22.085Z,100033.48
2018-10-17T21:36:28.808Z,100037.05
2018-10-17T21:39:33.451Z,100037.43
2018-10-17T21:42:38.346Z,100044.98
2018-10-17T21:45:43.059Z,100043.97
2018-10-17T21:48:48.047Z,100041.38
2018-10-17T21:51:52.647Z,100043.22
2018-10-17T21:54:57.376Z,100045.30
2018-10-17T21:58:01.980Z,100040.43
2018-10-17T22:01:06.669Z,100044.16
2018-10-17T22:04:11.367Z,100039.30
2018-10-17T22:07:16.142Z,100047.37
2018-10-17T22:10:20.889Z,100046.36
2018-10-17T22:13:25.487Z,100043.01
2018-10-17T22:16:35.496Z,100045.81
2018-10-17T22:19:40.460Z,100049.83
2018-10-17T22:22:45.479Z,100052.72
2018-10-17T22:25:50.497Z,100057.36
2018-10-17T22:28:55.207Z,100050.20
2018-10-17T22:32:00.101Z,100054.14
2018-10-17T22:35:04.785Z,100053.23
2018-10-17T22:38:09.412Z,100049.42
2018-10-17T22:41:14.276Z,100052.91
2018-10-17T22:44:18.855Z,100051.03
2018-10-17T22:47:23.568Z,100055.14
2018-10-17T22:50:28.844Z,100060.98
2018-10-17T22:53:33.513Z,100053.31
2018-10-17T22:56:39.161Z,100053.20
2018-10-17T22:59:44.045Z,100056.61
2018-10-17T23:02:48.738Z,100053.87
2018-10-17T23:05:53.295Z,100048.87
2018-10-17T23:08:57.902Z,100053.91
2018-10-17T23:12:02.556Z,100053.45
2018-10-17T23:15:12.890Z,100050.95
2018-10-17T23:18:17.514Z,100048.84
2018-10-17T23:21:22.088Z,100051.70
2018-10-17T23:24:26.646Z,100051.70
2018-10-17T23:27:31.388Z,100048.95
2018-10-17T23:30:35.939Z,100041.81
2018-10-17T23:33:40.614Z,100052.98
2018-10-17T23:36:45.329Z,100048.23
2018-10-17T23:39:50.263Z,100051.47
2018-10-17T23:42:54.956Z,100049.92
2018-10-17T23:46:00.582Z,100054.63
2018-10-17T23:49:05.436Z,100055.62
2018-10-17T23:52:10.031Z,100050.52
2018-10-17T23:55:14.798Z,100057.00
2018-10-17T23:58:19.490Z,100057.42
